createdAt,value
2018-12-19T00:01:25.787Z,-1.77
2018-12-19T00:03:55.430Z,-1.76
2018-12-19T00:06:25.083Z,-1.63
2018-12-19T00:08:54.689Z,-1.61
2018-12-19T00:11:24.371Z,-1.67
2018-12-19T00:13:54.068Z,-1.62
2018-12-19T00:16:23.588Z,-1.53
2018-12-19T00:18:53.170Z,-1.38
2018-12-19T00:21:22.903Z,-1.19
2018-12-19T00:23:52.645Z,-1.15
2018-12-19T00:26:22.202Z,-1.13
2018-12-19T00:28:51.895Z,-1.02
2018-12-19T00:31:21.590Z,-1.01
2018-12-19T00:33:51.275Z,-1.00
2018-12-19T00:36:20.835Z,-0.93
2018-12-19T00:38:50.447Z,-0.88
2018-12-19T00:41:20.036Z,-0.86
2018-12-19T00:43:49.613Z,-0.77
2018-12-19T00:46:19.156Z,-0.71
2018-12-19T00:48:48.735Z,-0.70
2018-12-19T00:51:18.433Z,-0.67
2018-12-19T00:53:48.012Z,-0.72
2018-12-19T00:56:17.640Z,-0.76
2018-12-19T00:58:47.233Z,-0.79
2018-12-19T01:01:16.807Z,-0.70
2018-12-19T01:03:46.725Z,-0.62
2018-12-19T01:06:16.525Z,-0.64
2018-12-19T01:08:46.187Z,-0.67
2018-12-19T01:11:15.762Z,-0.66
2018-12-19T01:13:45.376Z,-0.65
2018-12-19T01:16:14.948Z,-0.64
2018-12-19T01:18:50.076Z,-0.73
2018-12-19T01:21:19.712Z,-0.74
2018-12-19T01:23:49.255Z,-0.77
2018-12-19T01:26:18.889Z,-0.77
2018-12-19T01:28:48.480Z,-0.68
2018-12-19T01:31:18.084Z,-0.73
2018-12-19T01:33:47.634Z,-0.71
2018-12-19T01:36:17.229Z,-0.78
2018-12-19T01:38:47.076Z,-0.70
2018-12-19T01:41:16.597Z,-0.72
2018-12-19T01:43:47.104Z,-0.69
2018-12-19T01:46:16.819Z,-0.72
2018-12-19T01:48:46.560Z,-0.66
2018-12-19T01:51:16.150Z,-0.63
2018-12-19T01:53:45.984Z,-0.59
2018-12-19T01:56:16.016Z,-0.50
2018-12-19T01:58:45.705Z,-0.57
2018-12-19T02:01:15.357Z,-0.54
2018-12-19T02:03:45.348Z,-0.48
2018-12-19T02:06:15.773Z,-0.49
2018-12-19T02:08:45.296Z,-0.49
2018-12-19T02:11:14.909Z,-0.57
2018-12-19T02:13:44.679Z,-0.47
2018-12-19T02:16:14.306Z,-0.50
2018-12-19T02:18:43.823Z,-0.51
2018-12-19T02:21:13.335Z,-0.50
2018-12-19T02:23:48.319Z,-0.45
2018-12-19T02:26:17.994Z,-0.47
2018-12-19T02:28:47.606Z,-0.49
2018-12-19T02:31:17.545Z,-0.45
2018-12-19T02:33:47.709Z,-0.42
2018-12-19T02:36:17.485Z,-0.47
2018-12-19T02:38:47.002Z,-0.43
2018-12-19T02:41:16.558Z,-0.42
2018-12-19T02:43:46.129Z,-0.46
2018-12-19T02:46:15.872Z,-0.39
2018-12-19T02:48:45.350Z,-0.45
2018-12-19T02:51:14.925Z,-0.45
2018-12-19T02:53:44.526Z,-0.41
2018-12-19T02:56:14.054Z,-0.43
2018-12-19T02:58:43.607Z,-0.42
2018-12-19T03:01:13.145Z,-0.28
2018-12-19T03:03:42.892Z,-0.38
2018-12-19T03:06:12.490Z,-0.32
2018-12-19T03:08:42.381Z,-0.31
2018-12-19T03:11:12.684Z,-0.36
2018-12-19T03:13:42.483Z,-0.30
2018-12-19T03:16:12.087Z,-0.29
2018-12-19T03:18:41.681Z,-0.26
2018-12-19T03:21:11.265Z,-0.31
2018-12-19T03:23:40.781Z,-0.34
2018-12-19T03:26:10.326Z,-0.43
2018-12-19T03:28:39.913Z,-0.46
2018-12-19T03:31:09.454Z,-0.59
2018-12-19T03:33:39.192Z,-0.63
2018-12-19T03:36:08.879Z,-0.69
2018-12-19T03:38:38.481Z,-0.77
2018-12-19T03:41:08.039Z,-0.81
2018-12-19T03:43:37.660Z,-0.92
2018-12-19T03:46:07.256Z,-1.01
2018-12-19T03:48:41.963Z,-1.05
2018-12-19T03:51:11.659Z,-0.92
2018-12-19T03:53:41.711Z,-1.04
2018-12-19T03:56:11.340Z,-1.13
2018-12-19T03:58:41.036Z,-1.05
2018-12-19T04:01:10.742Z,-1.12
2018-12-19T04:03:40.351Z,-1.12
2018-12-19T04:06:09.987Z,-1.00
2018-12-19T04:08:39.771Z,-1.09
2018-12-19T04:11:09.408Z,-1.14
2018-12-19T04:13:39.090Z,-1.04
2018-12-19T04:16:08.720Z,-1.02
2018-12-19T04:18:38.335Z,-0.95
2018-12-19T04:21:07.957Z,-1.01
2018-12-19T04:23:37.507Z,-0.95
2018-12-19T04:26:07.097Z,-0.80
2018-12-19T04:28:36.609Z,-0.78
2018-12-19T04:31:06.251Z,-0.64
2018-12-19T04:33:35.753Z,-0.54
2018-12-19T04:36:05.729Z,-0.48
2018-12-19T04:38:35.516Z,-0.35
2018-12-19T04:41:05.196Z,-0.35
2018-12-19T04:43:34.703Z,-0.31
2018-12-19T04:46:04.422Z,-0.24
2018-12-19T04:48:33.982Z,-0.13
2018-12-19T04:51:03.527Z,-0.15
2018-12-19T04:53:33.246Z,-0.17
2018-12-19T04:56:02.908Z,-0.19
2018-12-19T04:58:32.549Z,-0.26
2018-12-19T05:01:02.114Z,-0.20
2018-12-19T05:03:37.323Z,-0.20
2018-12-19T05:06:06.908Z,-0.14
2018-12-19T05:08:36.424Z,-0.19
2018-12-19T05:11:05.937Z,-0.17
2018-12-19T05:13:35.465Z,-0.28
2018-12-19T05:16:05.165Z,-0.24
2018-12-19T05:18:35.671Z,-0.28
2018-12-19T05:21:05.571Z,-0.32
2018-12-19T05:23:35.298Z,-0.28
2018-12-19T05:26:04.824Z,-0.30
2018-12-19T05:28:34.531Z,-0.26
2018-12-19T05:31:04.043Z,-0.13
2018-12-19T05:33:33.636Z,-0.17
2018-12-19T05:36:03.273Z,-0.14
2018-12-19T05:38:33.798Z,0.00
2018-12-19T05:41:03.452Z,0.03
2018-12-19T05:43:32.999Z,0.09
2018-12-19T05:46:02.603Z,0.08
2018-12-19T05:48:32.124Z,0.13
2018-12-19T05:51:01.710Z,0.18
2018-12-19T05:53:31.248Z,0.19
2018-12-19T05:56:00.878Z,0.17
2018-12-19T05:58:30.573Z,0.23
2018-12-19T06:01:00.231Z,0.29
2018-12-19T06:03:29.866Z,0.23
2018-12-19T06:05:59.462Z,0.31
2018-12-19T06:08:29.094Z,0.30
2018-12-19T06:10:58.679Z,0.25
2018-12-19T06:13:28.494Z,0.25
2018-12-19T06:15:58.636Z,0.26
2018-12-19T06:18:34.149Z,0.26
2018-12-19T06:21:03.768Z,0.25
2018-12-19T06:23:33.381Z,0.29
2018-12-19T06:26:02.877Z,0.30
2018-12-19T06:28:32.432Z,0.28
2018-12-19T06:31:02.221Z,0.36
2018-12-19T06:33:32.698Z,0.26
2018-12-19T06:36:02.376Z,0.31
2018-12-19T06:38:31.902Z,0.44
2018-12-19T06:41:01.551Z,0.48
2018-12-19T06:43:31.078Z,0.43
2018-12-19T06:46:00.743Z,0.52
2018-12-19T06:48:30.276Z,0.45
2018-12-19T06:50:59.776Z,0.43
2018-12-19T06:53:29.301Z,0.41
2018-12-19T06:55:58.860Z,0.35
2018-12-19T06:58:28.423Z,0.39
2018-12-19T07:00:58.077Z,0.38
2018-12-19T07:03:27.631Z,0.35
2018-12-19T07:05:57.907Z,0.38
2018-12-19T07:08:27.529Z,0.52
2018-12-19T07:10:57.162Z,0.55
2018-12-19T07:13:26.869Z,0.58
2018-12-19T07:15:56.629Z,0.57
2018-12-19T07:18:27.212Z,0.55
2018-12-19T07:20:57.595Z,0.59
2018-12-19T07:23:27.063Z,0.53
2018-12-19T07:25:57.106Z,0.58
2018-12-19T07:28:26.785Z,0.66
2018-12-19T07:30:57.372Z,0.65
2018-12-19T07:33:27.015Z,0.68
2018-12-19T07:35:56.581Z,0.72
2018-12-19T07:38:26.312Z,0.81
2018-12-19T07:40:58.516Z,0.83
2018-12-19T07:43:36.319Z,0.88
2018-12-19T07:46:06.068Z,1.00
2018-12-19T07:48:35.930Z,1.00
2018-12-19T07:51:05.433Z,1.01
2018-12-19T07:53:34.950Z,1.13
2018-12-19T07:56:04.469Z,1.10
2018-12-19T07:58:34.021Z,1.17
2018-12-19T08:01:03.639Z,1.22
2018-12-19T08:03:33.139Z,1.23
2018-12-19T08:06:03.026Z,1.27
2018-12-19T08:08:33.363Z,1.37
2018-12-19T08:11:03.225Z,1.37
2018-12-19T08:13:32.741Z,1.42
2018-12-19T08:16:02.309Z,1.46
2018-12-19T08:18:32.006Z,1.56
2018-12-19T08:21:01.492Z,1.71
2018-12-19T08:23:31.126Z,1.75
2018-12-19T08:26:00.616Z,1.74
2018-12-19T08:28:30.472Z,1.80
2018-12-19T08:30:59.992Z,1.85
2018-12-19T08:33:29.760Z,1.87
2018-12-19T08:35:59.396Z,1.92
2018-12-19T08:38:31.211Z,2.02
2018-12-19T08:41:02.793Z,2.14
2018-12-19T08:43:32.582Z,2.20
2018-12-19T08:46:02.656Z,2.29
2018-12-19T08:48:32.248Z,2.41
2018-12-19T08:51:01.786Z,2.41
2018-12-19T08:53:31.577Z,2.45
2018-12-19T08:56:01.240Z,2.47
2018-12-19T08:58:30.764Z,2.46
2018-12-19T09:01:00.287Z,2.53
2018-12-19T09:03:29.919Z,2.59
2018-12-19T09:05:59.459Z,2.62
2018-12-19T09:08:29.014Z,2.69
2018-12-19T09:11:05.463Z,2.70
2018-12-19T09:13:30.451Z,2.76
2018-12-19T09:15:59.935Z,2.83
2018-12-19T09:18:29.421Z,2.91
2018-12-19T09:20:59.143Z,2.94
2018-12-19T09:23:28.623Z,2.96
2018-12-19T09:25:58.465Z,3.05
2018-12-19T09:28:27.979Z,3.03
2018-12-19T09:30:57.658Z,3.08
2018-12-19T09:33:27.650Z,3.11
2018-12-19T09:35:57.503Z,3.13
2018-12-19T09:38:27.015Z,3.15
2018-12-19T09:40:56.615Z,3.24
2018-12-19T09:43:26.154Z,3.31
2018-12-19T09:45:55.751Z,3.41
2018-12-19T09:48:25.234Z,3.39
2018-12-19T09:50:54.681Z,3.57
2018-12-19T09:53:24.716Z,3.61
2018-12-19T09:55:54.405Z,3.73
2018-12-19T09:58:24.097Z,3.83
2018-12-19T10:00:54.013Z,3.65
2018-12-19T10:03:23.508Z,3.66
2018-12-19T10:05:53.280Z,3.65
2018-12-19T10:08:22.871Z,3.67
2018-12-19T10:10:52.460Z,3.68
2018-12-19T10:13:22.452Z,3.73
2018-12-19T10:15:52.063Z,3.84
2018-12-19T10:18:21.695Z,3.91
2018-12-19T10:20:51.160Z,3.86
2018-12-19T10:23:20.809Z,3.87
2018-12-19T10:25:54.426Z,3.93
2018-12-19T10:28:29.020Z,3.88
2018-12-19T10:30:58.952Z,3.94
2018-12-19T10:33:29.360Z,3.95
2018-12-19T10:35:58.981Z,3.80
2018-12-19T10:38:28.429Z,3.80
2018-12-19T10:40:57.967Z,3.79
2018-12-19T10:43:27.703Z,3.90
2018-12-19T10:45:57.211Z,3.97
2018-12-19T10:48:26.686Z,3.96
2018-12-19T10:50:56.157Z,4.04
2018-12-19T10:53:25.746Z,4.02
2018-12-19T10:55:55.260Z,4.09
2018-12-19T10:58:24.871Z,3.98
2018-12-19T11:01:00.573Z,4.00
2018-12-19T11:03:30.190Z,4.09
2018-12-19T11:06:00.002Z,4.26
2018-12-19T11:08:29.584Z,4.10
2018-12-19T11:10:59.263Z,3.98
2018-12-19T11:13:29.375Z,3.92
2018-12-19T11:15:59.140Z,3.96
2018-12-19T11:18:28.657Z,4.20
2018-12-19T11:20:58.555Z,4.43
2018-12-19T11:23:28.125Z,4.55
2018-12-19T11:25:57.847Z,4.46
2018-12-19T11:28:27.391Z,4.46
2018-12-19T11:30:56.934Z,4.49
2018-12-19T11:33:26.530Z,4.31
2018-12-19T11:35:56.073Z,4.24
2018-12-19T11:38:25.543Z,4.20
2018-12-19T11:40:55.076Z,4.18
2018-12-19T11:43:24.525Z,4.24
2018-12-19T11:45:54.043Z,4.20
2018-12-19T11:48:23.674Z,4.09
2018-12-19T11:50:53.241Z,4.09
2018-12-19T11:53:22.815Z,3.95
2018-12-19T11:55:52.279Z,4.01
2018-12-19T11:58:21.935Z,4.05
2018-12-19T12:00:51.536Z,4.12
2018-12-19T12:03:20.995Z,4.04
2018-12-19T12:05:50.716Z,4.09
2018-12-19T12:08:21.073Z,4.09
2018-12-19T12:10:50.602Z,4.00
2018-12-19T12:13:20.074Z,4.02
2018-12-19T12:15:49.767Z,3.95
2018-12-19T12:18:19.251Z,3.91
2018-12-19T12:20:48.788Z,3.90
2018-12-19T12:23:18.439Z,4.10
2018-12-19T12:25:48.060Z,4.20
2018-12-19T12:28:17.608Z,4.14
2018-12-19T12:30:47.156Z,4.27
2018-12-19T12:33:16.722Z,4.12
2018-12-19T12:35:46.586Z,3.96
2018-12-19T12:38:16.357Z,3.99
2018-12-19T12:40:45.941Z,4.13
2018-12-19T12:43:15.528Z,4.03
2018-12-19T12:45:45.004Z,3.96
2018-12-19T12:48:14.537Z,3.85
2018-12-19T12:50:44.020Z,3.84
2018-12-19T12:53:14.008Z,3.75
2018-12-19T12:55:43.543Z,3.76
2018-12-19T12:58:13.281Z,3.72
2018-12-19T13:00:42.833Z,3.64
2018-12-19T13:03:12.266Z,3.59
2018-12-19T13:05:41.911Z,3.58
2018-12-19T13:08:11.419Z,3.58
2018-12-19T13:10:40.889Z,3.55
2018-12-19T13:13:10.433Z,3.61
2018-12-19T13:15:44.009Z,3.55
2018-12-19T13:18:14.677Z,3.42
2018-12-19T13:20:44.659Z,3.44
2018-12-19T13:23:15.348Z,3.46
2018-12-19T13:25:45.351Z,3.52
2018-12-19T13:28:15.006Z,3.47
2018-12-19T13:30:44.516Z,3.37
2018-12-19T13:33:14.068Z,3.42
2018-12-19T13:35:43.840Z,3.53
2018-12-19T13:38:13.425Z,3.46
2018-12-19T13:40:44.774Z,3.51
2018-12-19T13:43:14.283Z,3.49
2018-12-19T13:45:44.691Z,3.37
2018-12-19T13:48:15.178Z,3.45
2018-12-19T13:50:44.657Z,3.38
2018-12-19T13:53:14.287Z,3.38
2018-12-19T13:55:43.819Z,3.44
2018-12-19T13:58:13.295Z,3.29
2018-12-19T14:00:42.758Z,3.27
2018-12-19T14:03:12.375Z,3.18
2018-12-19T14:05:41.883Z,3.09
2018-12-19T14:08:11.497Z,3.04
2018-12-19T14:10:41.158Z,2.91
2018-12-19T14:13:10.804Z,2.89
2018-12-19T14:15:40.412Z,2.79
2018-12-19T14:18:10.569Z,2.76
2018-12-19T14:20:41.591Z,2.69
2018-12-19T14:23:12.012Z,2.68
2018-12-19T14:25:41.601Z,2.65
2018-12-19T14:28:11.203Z,2.59
2018-12-19T14:30:40.931Z,2.48
2018-12-19T14:33:10.544Z,2.48
2018-12-19T14:35:40.735Z,2.40
2018-12-19T14:38:10.318Z,2.42
2018-12-19T14:40:40.360Z,2.28
2018-12-19T14:43:09.974Z,2.22
2018-12-19T14:45:39.570Z,2.15
2018-12-19T14:48:10.880Z,2.15
2018-12-19T14:50:40.707Z,2.17
2018-12-19T14:53:10.279Z,2.06
2018-12-19T14:55:40.184Z,2.06
2018-12-19T14:58:12.703Z,1.94
2018-12-19T15:00:42.159Z,1.88
2018-12-19T15:03:11.975Z,1.90
2018-12-19T15:05:41.431Z,1.88
2018-12-19T15:08:10.942Z,1.86
2018-12-19T15:10:42.064Z,1.84
2018-12-19T15:13:11.569Z,1.80
2018-12-19T15:15:43.162Z,1.85
2018-12-19T15:18:12.668Z,1.77
2018-12-19T15:20:42.648Z,1.67
2018-12-19T15:23:16.396Z,1.68
2018-12-19T15:25:46.140Z,1.67
2018-12-19T15:28:15.682Z,1.58
2018-12-19T15:30:45.663Z,1.56
2018-12-19T15:33:15.184Z,1.54
2018-12-19T15:35:45.537Z,1.45
2018-12-19T15:38:15.081Z,1.56
2018-12-19T15:40:45.808Z,1.59
2018-12-19T15:43:15.268Z,1.56
2018-12-19T15:45:44.761Z,1.64
2018-12-19T15:48:14.356Z,1.64
2018-12-19T15:50:44.827Z,1.59
2018-12-19T15:53:15.006Z,1.55
2018-12-19T15:55:44.572Z,1.60
2018-12-19T15:58:14.072Z,1.62
2018-12-19T16:00:43.553Z,1.58
2018-12-19T16:03:13.217Z,1.55
2018-12-19T16:05:42.691Z,1.50
2018-12-19T16:08:12.252Z,1.56
2018-12-19T16:10:41.748Z,1.54
2018-12-19T16:13:11.226Z,1.55
2018-12-19T16:15:40.932Z,1.54
2018-12-19T16:18:10.412Z,1.56
2018-12-19T16:20:40.083Z,1.50
2018-12-19T16:23:09.827Z,1.42
2018-12-19T16:25:39.391Z,1.42
2018-12-19T16:28:08.860Z,1.47
2018-12-19T16:30:38.318Z,1.43
2018-12-19T16:33:08.089Z,1.40
2018-12-19T16:35:37.588Z,1.45
2018-12-19T16:38:07.051Z,1.48
2018-12-19T16:40:36.573Z,1.33
2018-12-19T16:43:06.791Z,1.42
2018-12-19T16:45:36.248Z,1.40
2018-12-19T16:48:05.748Z,1.32
2018-12-19T16:50:35.204Z,1.33
2018-12-19T16:53:04.758Z,1.36
2018-12-19T16:55:34.438Z,1.26
2018-12-19T16:58:03.960Z,1.21
2018-12-19T17:00:33.463Z,1.18
2018-12-19T17:03:02.843Z,1.25
2018-12-19T17:05:32.528Z,1.14
2018-12-19T17:08:02.006Z,1.10
2018-12-19T17:10:31.464Z,1.11
2018-12-19T17:13:01.017Z,1.07
2018-12-19T17:15:38.067Z,1.04
2018-12-19T17:18:07.764Z,1.01
2018-12-19T17:20:37.177Z,0.95
2018-12-19T17:23:06.711Z,1.09
2018-12-19T17:25:36.075Z,1.03
2018-12-19T17:28:05.446Z,0.91
2018-12-19T17:30:34.979Z,1.01
2018-12-19T17:33:04.403Z,1.00
2018-12-19T17:35:33.776Z,1.01
2018-12-19T17:38:03.096Z,1.04
2018-12-19T17:40:32.579Z,0.99
2018-12-19T17:43:02.143Z,0.98
2018-12-19T17:45:31.510Z,1.01
2018-12-19T17:48:01.049Z,0.97
2018-12-19T17:50:30.446Z,0.96
2018-12-19T17:52:59.810Z,0.95
2018-12-19T17:55:29.258Z,0.95
2018-12-19T17:57:58.676Z,0.99
2018-12-19T18:00:28.531Z,1.01
2018-12-19T18:02:57.976Z,1.08
2018-12-19T18:05:28.060Z,1.03
2018-12-19T18:07:58.043Z,1.07
2018-12-19T18:10:28.620Z,1.10
2018-12-19T18:12:58.038Z,1.09
2018-12-19T18:15:27.645Z,1.02
2018-12-19T18:17:57.031Z,1.05
2018-12-19T18:20:26.988Z,1.05
2018-12-19T18:22:56.541Z,1.11
2018-12-19T18:25:25.952Z,1.08
2018-12-19T18:27:56.173Z,1.04
2018-12-19T18:30:30.864Z,1.18
2018-12-19T18:33:00.852Z,1.17
2018-12-19T18:35:30.531Z,1.12
2018-12-19T18:37:59.900Z,1.16
2018-12-19T18:40:29.462Z,1.23
2018-12-19T18:42:59.105Z,1.29
2018-12-19T18:45:28.797Z,1.21
2018-12-19T18:47:58.311Z,1.20
2018-12-19T18:50:28.088Z,1.14
2018-12-19T18:52:57.626Z,1.16
2018-12-19T18:55:27.157Z,1.12
2018-12-19T18:57:57.125Z,1.09
2018-12-19T19:00:34.823Z,1.07
2018-12-19T19:03:04.543Z,1.06
2018-12-19T19:05:34.350Z,1.02
2018-12-19T19:08:06.170Z,1.03
2018-12-19T19:10:36.807Z,1.06
2018-12-19T19:13:06.473Z,1.01
2018-12-19T19:15:36.112Z,0.95
2018-12-19T19:18:05.482Z,0.90
2018-12-19T19:20:34.870Z,0.92
2018-12-19T19:23:04.336Z,0.84
2018-12-19T19:25:33.920Z,0.82
2018-12-19T19:28:03.251Z,0.76
2018-12-19T19:30:32.718Z,0.70
2018-12-19T19:33:02.210Z,0.67
2018-12-19T19:35:37.228Z,0.73
2018-12-19T19:38:06.588Z,0.57
2018-12-19T19:40:36.145Z,0.52
2018-12-19T19:43:05.689Z,0.53
2018-12-19T19:45:47.700Z,0.66
2018-12-19T19:48:17.494Z,0.74
2018-12-19T19:50:46.915Z,0.63
2018-12-19T19:53:16.471Z,0.61
2018-12-19T19:55:46.181Z,0.63
2018-12-19T19:58:15.666Z,0.63
2018-12-19T20:00:45.097Z,0.56
2018-12-19T20:03:14.563Z,0.48
2018-12-19T20:05:44.508Z,0.51
2018-12-19T20:08:14.089Z,0.50
2018-12-19T20:10:43.573Z,0.51
2018-12-19T20:13:13.079Z,0.54
2018-12-19T20:15:42.670Z,0.45
2018-12-19T20:18:13.493Z,0.39
2018-12-19T20:20:43.022Z,0.42
2018-12-19T20:23:12.627Z,0.28
2018-12-19T20:25:42.182Z,0.28
2018-12-19T20:28:11.645Z,0.25
2018-12-19T20:30:41.160Z,0.19
2018-12-19T20:33:10.730Z,0.18
2018-12-19T20:35:40.374Z,0.15
2018-12-19T20:38:09.957Z,0.17
2018-12-19T20:40:39.460Z,0.11
2018-12-19T20:43:09.100Z,0.03
2018-12-19T20:45:38.651Z,-0.08
2018-12-19T20:48:08.237Z,-0.07
2018-12-19T20:50:37.685Z,0.01
2018-12-19T20:53:07.210Z,-0.01
2018-12-19T20:55:37.591Z,-0.05
2018-12-19T20:58:07.153Z,-0.15
2018-12-19T21:00:36.734Z,-0.20
2018-12-19T21:03:06.692Z,-0.23
2018-12-19T21:05:36.230Z,-0.11
2018-12-19T21:08:05.699Z,-0.22
2018-12-19T21:10:35.299Z,-0.21
2018-12-19T21:13:04.808Z,-0.21
2018-12-19T21:15:34.252Z,-0.26
2018-12-19T21:19:06.515Z,-0.22
2018-12-19T21:21:35.964Z,-0.32
2018-12-19T21:24:05.492Z,-0.39
2018-12-19T21:26:34.996Z,-0.36
2018-12-19T21:29:04.810Z,-0.30
2018-12-19T21:31:34.581Z,-0.35
2018-12-19T21:34:04.190Z,-0.26
2018-12-19T21:36:35.209Z,-0.34
2018-12-19T21:39:08.017Z,-0.36
2018-12-19T21:41:37.600Z,-0.40
2018-12-19T21:44:07.395Z,-0.46
2018-12-19T21:46:37.111Z,-0.39
2018-12-19T21:49:06.959Z,-0.39
2018-12-19T21:51:36.604Z,-0.44
2018-12-19T21:54:06.200Z,-0.40
2018-12-19T21:56:35.838Z,-0.43
2018-12-19T21:59:05.431Z,-0.47
2018-12-19T22:01:35.287Z,-0.53
2018-12-19T22:04:05.263Z,-0.65
2018-12-19T22:06:35.025Z,-0.57
2018-12-19T22:09:08.990Z,-0.57
2018-12-19T22:11:38.701Z,-0.59
2018-12-19T22:14:08.482Z,-0.60
2018-12-19T22:16:43.247Z,-0.65
2018-12-19T22:19:12.914Z,-0.68
2018-12-19T22:21:43.716Z,-0.76
2018-12-19T22:24:13.491Z,-0.73
2018-12-19T22:26:43.064Z,-0.80
2018-12-19T22:29:12.933Z,-0.85
2018-12-19T22:31:42.554Z,-0.95
2018-12-19T22:34:12.431Z,-1.04
2018-12-19T22:36:42.081Z,-0.93
2018-12-19T22:39:16.028Z,-0.99
2018-12-19T22:41:45.615Z,-1.00
2018-12-19T22:44:15.359Z,-0.92
2018-12-19T22:46:45.127Z,-0.96
2018-12-19T22:49:14.768Z,-0.92
2018-12-19T22:51:46.112Z,-0.89
2018-12-19T22:54:15.839Z,-0.98
2018-12-19T22:56:45.693Z,-0.87
2018-12-19T22:59:15.259Z,-0.92
2018-12-19T23:01:50.104Z,-0.93
2018-12-19T23:04:20.035Z,-0.97
2018-12-19T23:06:49.684Z,-0.95
2018-12-19T23:09:19.426Z,-1.13
2018-12-19T23:11:49.348Z,-1.02
2018-12-19T23:14:18.916Z,-1.17
2018-12-19T23:16:48.583Z,-1.19
2018-12-19T23:19:18.222Z,-1.20
2018-12-19T23:21:47.863Z,-1.21
2018-12-19T23:24:17.393Z,-1.17
2018-12-19T23:26:47.212Z,-1.13
2018-12-19T23:29:17.009Z,-1.10
2018-12-19T23:31:46.644Z,-1.14
2018-12-19T23:34:16.243Z,-1.09
2018-12-19T23:36:45.824Z,-1.02
2018-12-19T23:39:15.454Z,-0.99
2018-12-19T23:41:44.968Z,-0.99
2018-12-19T23:44:22.549Z,-0.87
2018-12-19T23:46:50.613Z,-0.90
2018-12-19T23:49:20.354Z,-0.94
2018-12-19T23:51:50.208Z,-0.99
2018-12-19T23:54:19.869Z,-0.90
2018-12-19T23:56:49.582Z,-0.94
2018-12-19T23:59:19.243Z,-0.97
